sensor_id;sensor_type;location;lat;lon;timestamp;P1;durP1;ratioP1;P2;durP2;ratioP2
9056;SDS011;4563;54.756;9.400;2023-03-13T00:01:48;66.67;;;7.00;;
9056;SDS011;4563;54.756;9.400;2023-03-13T00:04:15;77.13;;;6.77;;
9056;SDS011;4563;54.756;9.400;2023-03-13T00:06:42;62.47;;;6.07;;
9056;SDS011;4563;54.756;9.400;2023-03-13T00:09:09;74.57;;;7.13;;
9056;SDS011;4563;54.756;9.400;2023-03-13T00:11:37;68.93;;;7.67;;
9056;SDS011;4563;54.756;9.400;2023-03-13T00:14:06;56.10;;;7.87;;
9056;SDS011;4563;54.756;9.400;2023-03-13T00:16:34;76.30;;;7.17;;
9056;SDS011;4563;54.756;9.400;2023-03-13T00:19:02;59.13;;;6.77;;
9056;SDS011;4563;54.756;9.400;2023-03-13T00:21:30;65.20;;;6.77;;
9056;SDS011;4563;54.756;9.400;2023-03-13T00:23:57;63.67;;;6.73;;
9056;SDS011;4563;54.756;9.400;2023-03-13T00:26:26;89.27;;;7.80;;
9056;SDS011;4563;54.756;9.400;2023-03-13T00:28:54;62.37;;;7.53;;
9056;SDS011;4563;54.756;9.400;2023-03-13T00:31:23;70.90;;;7.70;;
9056;SDS011;4563;54.756;9.400;2023-03-13T00:33:52;59.97;;;7.03;;
9056;SDS011;4563;54.756;9.400;2023-03-13T00:36:20;79.50;;;7.80;;
9056;SDS011;4563;54.756;9.400;2023-03-13T00:38:48;83.67;;;8.50;;
9056;SDS011;4563;54.756;9.400;2023-03-13T00:41:16;56.47;;;7.67;;
9056;SDS011;4563;54.756;9.400;2023-03-13T00:43:44;83.47;;;7.40;;
9056;SDS011;4563;54.756;9.400;2023-03-13T00:46:12;52.43;;;6.73;;
9056;SDS011;4563;54.756;9.400;2023-03-13T00:48:41;85.37;;;9.03;;
9056;SDS011;4563;54.756;9.400;2023-03-13T00:51:08;71.70;;;7.67;;
9056;SDS011;4563;54.756;9.400;2023-03-13T00:53:35;62.10;;;7.17;;
9056;SDS011;4563;54.756;9.400;2023-03-13T00:56:03;60.53;;;6.40;;
9056;SDS011;4563;54.756;9.400;2023-03-13T00:58:32;63.23;;;7.80;;
9056;SDS011;4563;54.756;9.400;2023-03-13T01:01:07;63.13;;;7.43;;
9056;SDS011;4563;54.756;9.400;2023-03-13T01:03:35;68.13;;;7.67;;
9056;SDS011;4563;54.756;9.400;2023-03-13T01:06:05;60.67;;;7.07;;
9056;SDS011;4563;54.756;9.400;2023-03-13T01:08:33;68.87;;;9.20;;
9056;SDS011;4563;54.756;9.400;2023-03-13T01:11:00;63.33;;;7.70;;
9056;SDS011;4563;54.756;9.400;2023-03-13T01:13:29;62.90;;;8.13;;
9056;SDS011;4563;54.756;9.400;2023-03-13T01:15:57;77.80;;;9.33;;
9056;SDS011;4563;54.756;9.400;2023-03-13T01:18:26;68.73;;;8.67;;
9056;SDS011;4563;54.756;9.400;2023-03-13T01:20:53;61.97;;;7.87;;
9056;SDS011;4563;54.756;9.400;2023-03-13T01:23:21;81.87;;;8.23;;
9056;SDS011;4563;54.756;9.400;2023-03-13T01:25:48;59.70;;;9.20;;
9056;SDS011;4563;54.756;9.400;2023-03-13T01:28:15;68.33;;;7.83;;
9056;SDS011;4563;54.756;9.400;2023-03-13T01:30:42;55.60;;;7.27;;
9056;SDS011;4563;54.756;9.400;2023-03-13T01:33:09;58.60;;;7.77;;
9056;SDS011;4563;54.756;9.400;2023-03-13T01:35:35;79.03;;;9.07;;
9056;SDS011;4563;54.756;9.400;2023-03-13T01:38:02;64.47;;;7.70;;
9056;SDS011;4563;54.756;9.400;2023-03-13T01:40:30;54.80;;;6.67;;
9056;SDS011;4563;54.756;9.400;2023-03-13T01:43:11;54.60;;;6.73;;
9056;SDS011;4563;54.756;9.400;2023-03-13T01:45:56;57.83;;;7.33;;
9056;SDS011;4563;54.756;9.400;2023-03-13T01:48:33;55.77;;;6.80;;
9056;SDS011;4563;54.756;9.400;2023-03-13T01:51:05;51.97;;;6.97;;
9056;SDS011;4563;54.756;9.400;2023-03-13T01:53:34;52.17;;;7.27;;
9056;SDS011;4563;54.756;9.400;2023-03-13T01:56:07;40.10;;;6.43;;
9056;SDS011;4563;54.756;9.400;2023-03-13T01:58:38;57.93;;;6.47;;
9056;SDS011;4563;54.756;9.400;2023-03-13T02:01:05;48.10;;;6.30;;
9056;SDS011;4563;54.756;9.400;2023-03-13T02:03:32;51.90;;;6.83;;
9056;SDS011;4563;54.756;9.400;2023-03-13T02:06:01;51.50;;;5.87;;
9056;SDS011;4563;54.756;9.400;2023-03-13T02:08:30;52.07;;;6.70;;
9056;SDS011;4563;54.756;9.400;2023-03-13T02:11:00;45.20;;;5.30;;
9056;SDS011;4563;54.756;9.400;2023-03-13T02:13:34;46.30;;;5.77;;
9056;SDS011;4563;54.756;9.400;2023-03-13T02:16:01;34.13;;;4.83;;
9056;SDS011;4563;54.756;9.400;2023-03-13T02:18:28;35.37;;;5.43;;
9056;SDS011;4563;54.756;9.400;2023-03-13T02:20:57;42.20;;;5.93;;
9056;SDS011;4563;54.756;9.400;2023-03-13T02:23:32;32.57;;;6.10;;
9056;SDS011;4563;54.756;9.400;2023-03-13T02:26:05;44.87;;;5.97;;
9056;SDS011;4563;54.756;9.400;2023-03-13T02:28:33;39.73;;;5.40;;
9056;SDS011;4563;54.756;9.400;2023-03-13T02:31:03;49.50;;;5.27;;
9056;SDS011;4563;54.756;9.400;2023-03-13T02:33:31;45.97;;;6.20;;
9056;SDS011;4563;54.756;9.400;2023-03-13T02:36:02;50.23;;;9.23;;
9056;SDS011;4563;54.756;9.400;2023-03-13T02:38:30;34.20;;;4.40;;
9056;SDS011;4563;54.756;9.400;2023-03-13T02:41:00;43.53;;;5.33;;
9056;SDS011;4563;54.756;9.400;2023-03-13T02:43:32;44.27;;;4.93;;
9056;SDS011;4563;54.756;9.400;2023-03-13T02:46:00;42.53;;;6.10;;
9056;SDS011;4563;54.756;9.400;2023-03-13T02:48:30;41.00;;;5.63;;
9056;SDS011;4563;54.756;9.400;2023-03-13T02:51:00;36.37;;;4.93;;
9056;SDS011;4563;54.756;9.400;2023-03-13T02:53:28;38.20;;;4.73;;
9056;SDS011;4563;54.756;9.400;2023-03-13T02:55:56;38.33;;;4.93;;
9056;SDS011;4563;54.756;9.400;2023-03-13T02:58:24;34.00;;;4.30;;
9056;SDS011;4563;54.756;9.400;2023-03-13T03:00:52;31.10;;;5.13;;
9056;SDS011;4563;54.756;9.400;2023-03-13T03:03:19;45.90;;;5.83;;
9056;SDS011;4563;54.756;9.400;2023-03-13T03:05:46;43.77;;;5.73;;
9056;SDS011;4563;54.756;9.400;2023-03-13T03:08:12;42.90;;;5.87;;
9056;SDS011;4563;54.756;9.400;2023-03-13T03:10:39;36.47;;;5.37;;
9056;SDS011;4563;54.756;9.400;2023-03-13T03:13:06;27.40;;;6.17;;
9056;SDS011;4563;54.756;9.400;2023-03-13T03:15:33;32.97;;;5.10;;
9056;SDS011;4563;54.756;9.400;2023-03-13T03:18:01;27.27;;;5.20;;
9056;SDS011;4563;54.756;9.400;2023-03-13T03:20:28;41.23;;;5.63;;
9056;SDS011;4563;54.756;9.400;2023-03-13T03:22:54;27.53;;;5.57;;
9056;SDS011;4563;54.756;9.400;2023-03-13T03:25:21;26.57;;;5.57;;
9056;SDS011;4563;54.756;9.400;2023-03-13T03:27:48;52.33;;;7.63;;
9056;SDS011;4563;54.756;9.400;2023-03-13T03:30:15;36.83;;;6.30;;
9056;SDS011;4563;54.756;9.400;2023-03-13T03:32:42;43.40;;;7.50;;
9056;SDS011;4563;54.756;9.400;2023-03-13T03:35:10;28.13;;;5.73;;
9056;SDS011;4563;54.756;9.400;2023-03-13T03:37:37;37.23;;;7.10;;
9056;SDS011;4563;54.756;9.400;2023-03-13T03:40:04;38.17;;;6.07;;
9056;SDS011;4563;54.756;9.400;2023-03-13T03:42:31;42.17;;;6.50;;
9056;SDS011;4563;54.756;9.400;2023-03-13T03:44:58;35.80;;;6.10;;
9056;SDS011;4563;54.756;9.400;2023-03-13T03:47:25;34.97;;;6.03;;
9056;SDS011;4563;54.756;9.400;2023-03-13T03:49:52;39.60;;;6.47;;
9056;SDS011;4563;54.756;9.400;2023-03-13T03:52:20;36.97;;;5.70;;
9056;SDS011;4563;54.756;9.400;2023-03-13T03:54:47;36.47;;;6.10;;
9056;SDS011;4563;54.756;9.400;2023-03-13T03:57:14;37.53;;;6.63;;
9056;SDS011;4563;54.756;9.400;2023-03-13T03:59:41;26.37;;;5.40;;
9056;SDS011;4563;54.756;9.400;2023-03-13T04:02:08;34.47;;;5.80;;
9056;SDS011;4563;54.756;9.400;2023-03-13T04:04:34;37.20;;;6.40;;
9056;SDS011;4563;54.756;9.400;2023-03-13T04:07:01;30.50;;;4.03;;
9056;SDS011;4563;54.756;9.400;2023-03-13T04:09:29;38.43;;;5.80;;
9056;SDS011;4563;54.756;9.400;2023-03-13T04:11:56;25.30;;;5.27;;
9056;SDS011;4563;54.756;9.400;2023-03-13T04:14:23;29.37;;;4.40;;
9056;SDS011;4563;54.756;9.400;2023-03-13T04:16:50;38.57;;;4.93;;
9056;SDS011;4563;54.756;9.400;2023-03-13T04:19:17;16.83;;;3.60;;
9056;SDS011;4563;54.756;9.400;2023-03-13T04:21:44;34.53;;;4.80;;
9056;SDS011;4563;54.756;9.400;2023-03-13T04:24:10;32.93;;;5.00;;
9056;SDS011;4563;54.756;9.400;2023-03-13T04:26:38;41.97;;;6.57;;
9056;SDS011;4563;54.756;9.400;2023-03-13T04:29:05;30.57;;;5.33;;
9056;SDS011;4563;54.756;9.400;2023-03-13T04:31:32;29.20;;;4.70;;
9056;SDS011;4563;54.756;9.400;2023-03-13T04:33:59;31.03;;;5.70;;
9056;SDS011;4563;54.756;9.400;2023-03-13T04:36:26;44.00;;;6.50;;
9056;SDS011;4563;54.756;9.400;2023-03-13T04:38:53;32.20;;;5.37;;
9056;SDS011;4563;54.756;9.400;2023-03-13T04:41:19;38.93;;;5.97;;
9056;SDS011;4563;54.756;9.400;2023-03-13T04:43:48;36.23;;;5.47;;
9056;SDS011;4563;54.756;9.400;2023-03-13T04:46:15;46.77;;;6.67;;
9056;SDS011;4563;54.756;9.400;2023-03-13T04:48:42;39.60;;;5.63;;
9056;SDS011;4563;54.756;9.400;2023-03-13T04:51:09;37.33;;;5.63;;
9056;SDS011;4563;54.756;9.400;2023-03-13T04:53:36;36.17;;;5.17;;
9056;SDS011;4563;54.756;9.400;2023-03-13T04:56:03;23.40;;;4.70;;
9056;SDS011;4563;54.756;9.400;2023-03-13T04:58:30;24.33;;;4.63;;
9056;SDS011;4563;54.756;9.400;2023-03-13T05:00:58;18.83;;;3.87;;
9056;SDS011;4563;54.756;9.400;2023-03-13T05:03:25;23.50;;;4.27;;
9056;SDS011;4563;54.756;9.400;2023-03-13T05:05:52;17.53;;;4.03;;
9056;SDS011;4563;54.756;9.400;2023-03-13T05:08:18;36.17;;;4.57;;
9056;SDS011;4563;54.756;9.400;2023-03-13T05:10:45;21.20;;;3.83;;
9056;SDS011;4563;54.756;9.400;2023-03-13T05:13:12;21.73;;;3.93;;
9056;SDS011;4563;54.756;9.400;2023-03-13T05:15:39;26.13;;;5.07;;
9056;SDS011;4563;54.756;9.400;2023-03-13T05:18:07;24.57;;;5.10;;
9056;SDS011;4563;54.756;9.400;2023-03-13T05:20:34;14.13;;;3.70;;
9056;SDS011;4563;54.756;9.400;2023-03-13T05:23:01;18.73;;;5.60;;
9056;SDS011;4563;54.756;9.400;2023-03-13T05:25:27;31.57;;;5.10;;
9056;SDS011;4563;54.756;9.400;2023-03-13T05:27:54;25.43;;;6.07;;
9056;SDS011;4563;54.756;9.400;2023-03-13T05:30:21;26.73;;;6.20;;
9056;SDS011;4563;54.756;9.400;2023-03-13T05:32:50;16.80;;;6.17;;
9056;SDS011;4563;54.756;9.400;2023-03-13T05:35:18;17.20;;;5.77;;
9056;SDS011;4563;54.756;9.400;2023-03-13T05:37:45;16.27;;;4.80;;
9056;SDS011;4563;54.756;9.400;2023-03-13T05:40:12;17.70;;;5.23;;
9056;SDS011;4563;54.756;9.400;2023-03-13T05:42:39;20.17;;;5.70;;
9056;SDS011;4563;54.756;9.400;2023-03-13T05:45:07;17.43;;;6.47;;
9056;SDS011;4563;54.756;9.400;2023-03-13T05:47:35;11.73;;;3.33;;
9056;SDS011;4563;54.756;9.400;2023-03-13T05:50:05;16.30;;;4.30;;
9056;SDS011;4563;54.756;9.400;2023-03-13T05:52:35;16.07;;;3.40;;
9056;SDS011;4563;54.756;9.400;2023-03-13T05:55:02;2.60;;;1.73;;
9056;SDS011;4563;54.756;9.400;2023-03-13T05:57:30;6.30;;;1.97;;
9056;SDS011;4563;54.756;9.400;2023-03-13T05:59:57;7.40;;;2.13;;
9056;SDS011;4563;54.756;9.400;2023-03-13T06:02:25;5.60;;;2.60;;
9056;SDS011;4563;54.756;9.400;2023-03-13T06:04:52;3.07;;;1.47;;
9056;SDS011;4563;54.756;9.400;2023-03-13T06:07:20;2.33;;;0.90;;
9056;SDS011;4563;54.756;9.400;2023-03-13T06:09:48;5.00;;;1.97;;
9056;SDS011;4563;54.756;9.400;2023-03-13T06:12:16;5.63;;;2.50;;
9056;SDS011;4563;54.756;9.400;2023-03-13T06:14:43;2.53;;;0.80;;
9056;SDS011;4563;54.756;9.400;2023-03-13T06:17:11;4.37;;;1.37;;
9056;SDS011;4563;54.756;9.400;2023-03-13T06:19:38;10.53;;;1.40;;
9056;SDS011;4563;54.756;9.400;2023-03-13T06:22:06;5.20;;;1.47;;
9056;SDS011;4563;54.756;9.400;2023-03-13T06:24:33;4.60;;;1.60;;
9056;SDS011;4563;54.756;9.400;2023-03-13T06:27:02;9.50;;;1.97;;
9056;SDS011;4563;54.756;9.400;2023-03-13T06:29:29;4.60;;;1.73;;
9056;SDS011;4563;54.756;9.400;2023-03-13T06:31:56;4.87;;;1.60;;
9056;SDS011;4563;54.756;9.400;2023-03-13T06:34:24;3.77;;;1.93;;
9056;SDS011;4563;54.756;9.400;2023-03-13T06:36:51;2.87;;;1.10;;
9056;SDS011;4563;54.756;9.400;2023-03-13T06:39:18;3.50;;;1.30;;
9056;SDS011;4563;54.756;9.400;2023-03-13T06:41:47;6.10;;;1.60;;
9056;SDS011;4563;54.756;9.400;2023-03-13T06:44:16;4.43;;;1.00;;
9056;SDS011;4563;54.756;9.400;2023-03-13T06:46:43;7.73;;;1.60;;
9056;SDS011;4563;54.756;9.400;2023-03-13T06:49:09;9.53;;;1.77;;
9056;SDS011;4563;54.756;9.400;2023-03-13T06:51:36;3.90;;;1.20;;
9056;SDS011;4563;54.756;9.400;2023-03-13T06:54:03;1.60;;;1.10;;
9056;SDS011;4563;54.756;9.400;2023-03-13T06:56:30;2.03;;;1.03;;
9056;SDS011;4563;54.756;9.400;2023-03-13T06:58:56;1.40;;;0.70;;
9056;SDS011;4563;54.756;9.400;2023-03-13T07:01:26;4.97;;;0.70;;
9056;SDS011;4563;54.756;9.400;2023-03-13T07:03:52;1.37;;;0.43;;
9056;SDS011;4563;54.756;9.400;2023-03-13T07:06:19;3.63;;;0.97;;
9056;SDS011;4563;54.756;9.400;2023-03-13T07:08:46;2.43;;;0.90;;
9056;SDS011;4563;54.756;9.400;2023-03-13T07:11:13;1.53;;;0.50;;
9056;SDS011;4563;54.756;9.400;2023-03-13T07:13:41;2.63;;;0.90;;
9056;SDS011;4563;54.756;9.400;2023-03-13T07:16:08;1.93;;;0.90;;
9056;SDS011;4563;54.756;9.400;2023-03-13T07:18:38;1.50;;;0.80;;
9056;SDS011;4563;54.756;9.400;2023-03-13T07:21:08;1.53;;;0.70;;
9056;SDS011;4563;54.756;9.400;2023-03-13T07:23:36;7.57;;;2.40;;
9056;SDS011;4563;54.756;9.400;2023-03-13T07:26:04;2.37;;;1.00;;
9056;SDS011;4563;54.756;9.400;2023-03-13T07:28:31;3.87;;;1.60;;
9056;SDS011;4563;54.756;9.400;2023-03-13T07:31:02;4.07;;;1.20;;
9056;SDS011;4563;54.756;9.400;2023-03-13T07:33:30;1.13;;;1.00;;
9056;SDS011;4563;54.756;9.400;2023-03-13T07:35:59;3.13;;;1.10;;
9056;SDS011;4563;54.756;9.400;2023-03-13T07:38:25;8.17;;;3.80;;
9056;SDS011;4563;54.756;9.400;2023-03-13T07:40:53;2.93;;;0.90;;
9056;SDS011;4563;54.756;9.400;2023-03-13T07:43:21;2.60;;;0.90;;
9056;SDS011;4563;54.756;9.400;2023-03-13T07:45:49;5.70;;;1.20;;
9056;SDS011;4563;54.756;9.400;2023-03-13T07:48:17;6.23;;;1.20;;
9056;SDS011;4563;54.756;9.400;2023-03-13T07:50:44;8.30;;;1.50;;
9056;SDS011;4563;54.756;9.400;2023-03-13T07:53:19;4.60;;;1.10;;
9056;SDS011;4563;54.756;9.400;2023-03-13T07:56:06;2.67;;;0.90;;
9056;SDS011;4563;54.756;9.400;2023-03-13T07:59:42;2.00;;;1.00;;
9056;SDS011;4563;54.756;9.400;2023-03-13T08:01:56;1.57;;;0.50;;
9056;SDS011;4563;54.756;9.400;2023-03-13T08:04:23;2.30;;;0.57;;
9056;SDS011;4563;54.756;9.400;2023-03-13T08:06:55;1.47;;;0.60;;
9056;SDS011;4563;54.756;9.400;2023-03-13T08:09:27;0.97;;;0.40;;
9056;SDS011;4563;54.756;9.400;2023-03-13T08:18:15;1.83;;;0.50;;
9056;SDS011;4563;54.756;9.400;2023-03-13T08:20:42;2.47;;;0.40;;
9056;SDS011;4563;54.756;9.400;2023-03-13T08:23:08;0.40;;;0.37;;
9056;SDS011;4563;54.756;9.400;2023-03-13T08:25:37;2.13;;;0.50;;
9056;SDS011;4563;54.756;9.400;2023-03-13T08:28:03;4.90;;;0.87;;
9056;SDS011;4563;54.756;9.400;2023-03-13T08:30:30;3.70;;;0.70;;
9056;SDS011;4563;54.756;9.400;2023-03-13T08:32:57;9.97;;;5.07;;
9056;SDS011;4563;54.756;9.400;2023-03-13T08:35:24;6.87;;;1.20;;
9056;SDS011;4563;54.756;9.400;2023-03-13T08:37:50;5.73;;;0.90;;
9056;SDS011;4563;54.756;9.400;2023-03-13T08:40:17;2.93;;;0.80;;
9056;SDS011;4563;54.756;9.400;2023-03-13T08:42:45;3.80;;;0.60;;
9056;SDS011;4563;54.756;9.400;2023-03-13T08:45:12;1.63;;;0.50;;
9056;SDS011;4563;54.756;9.400;2023-03-13T08:47:39;2.50;;;0.47;;
9056;SDS011;4563;54.756;9.400;2023-03-13T08:50:06;1.77;;;0.47;;
9056;SDS011;4563;54.756;9.400;2023-03-13T08:52:33;4.67;;;0.50;;
9056;SDS011;4563;54.756;9.400;2023-03-13T08:55:00;3.20;;;0.50;;
9056;SDS011;4563;54.756;9.400;2023-03-13T08:57:27;4.07;;;0.40;;
9056;SDS011;4563;54.756;9.400;2023-03-13T08:59:55;0.93;;;0.33;;
9056;SDS011;4563;54.756;9.400;2023-03-13T09:02:22;0.40;;;0.20;;
9056;SDS011;4563;54.756;9.400;2023-03-13T09:04:49;1.90;;;0.40;;
9056;SDS011;4563;54.756;9.400;2023-03-13T09:07:15;2.03;;;0.40;;
9056;SDS011;4563;54.756;9.400;2023-03-13T09:09:42;0.60;;;0.30;;
9056;SDS011;4563;54.756;9.400;2023-03-13T09:12:09;0.83;;;0.30;;
9056;SDS011;4563;54.756;9.400;2023-03-13T09:14:36;0.83;;;0.23;;
9056;SDS011;4563;54.756;9.400;2023-03-13T09:17:04;0.63;;;0.30;;
9056;SDS011;4563;54.756;9.400;2023-03-13T09:19:31;2.60;;;0.40;;
9056;SDS011;4563;54.756;9.400;2023-03-13T09:21:58;4.10;;;0.60;;
9056;SDS011;4563;54.756;9.400;2023-03-13T09:24:25;3.97;;;0.90;;
9056;SDS011;4563;54.756;9.400;2023-03-13T09:26:52;8.80;;;0.93;;
9056;SDS011;4563;54.756;9.400;2023-03-13T09:29:18;6.50;;;1.13;;
9056;SDS011;4563;54.756;9.400;2023-03-13T09:31:45;14.37;;;2.17;;
9056;SDS011;4563;54.756;9.400;2023-03-13T09:34:13;22.83;;;3.50;;
9056;SDS011;4563;54.756;9.400;2023-03-13T09:36:40;28.53;;;2.90;;
9056;SDS011;4563;54.756;9.400;2023-03-13T09:39:07;29.23;;;3.30;;
9056;SDS011;4563;54.756;9.400;2023-03-13T09:41:35;18.73;;;2.37;;
9056;SDS011;4563;54.756;9.400;2023-03-13T09:44:10;18.57;;;2.57;;
9056;SDS011;4563;54.756;9.400;2023-03-13T09:46:42;20.93;;;2.10;;
9056;SDS011;4563;54.756;9.400;2023-03-13T09:49:17;11.43;;;1.73;;
9056;SDS011;4563;54.756;9.400;2023-03-13T09:51:57;16.50;;;2.87;;
9056;SDS011;4563;54.756;9.400;2023-03-13T09:54:30;15.00;;;2.60;;
9056;SDS011;4563;54.756;9.400;2023-03-13T09:57:02;18.70;;;2.67;;
9056;SDS011;4563;54.756;9.400;2023-03-13T09:59:36;25.30;;;3.17;;
9056;SDS011;4563;54.756;9.400;2023-03-13T10:02:15;26.50;;;3.50;;
9056;SDS011;4563;54.756;9.400;2023-03-13T10:04:52;25.23;;;3.57;;
9056;SDS011;4563;54.756;9.400;2023-03-13T10:07:42;33.20;;;3.10;;
9056;SDS011;4563;54.756;9.400;2023-03-13T10:10:39;17.87;;;3.23;;
9056;SDS011;4563;54.756;9.400;2023-03-13T10:13:31;32.87;;;3.97;;
9056;SDS011;4563;54.756;9.400;2023-03-13T10:16:19;24.67;;;2.70;;
9056;SDS011;4563;54.756;9.400;2023-03-13T10:19:25;30.03;;;3.10;;
9056;SDS011;4563;54.756;9.400;2023-03-13T10:22:17;25.97;;;3.87;;
9056;SDS011;4563;54.756;9.400;2023-03-13T10:24:55;24.97;;;3.50;;
9056;SDS011;4563;54.756;9.400;2023-03-13T10:27:29;23.43;;;3.23;;
9056;SDS011;4563;54.756;9.400;2023-03-13T10:29:56;21.97;;;2.90;;
9056;SDS011;4563;54.756;9.400;2023-03-13T10:32:23;26.10;;;3.37;;
9056;SDS011;4563;54.756;9.400;2023-03-13T10:34:53;28.80;;;3.07;;
9056;SDS011;4563;54.756;9.400;2023-03-13T10:37:24;24.50;;;3.53;;
9056;SDS011;4563;54.756;9.400;2023-03-13T10:39:52;18.90;;;2.50;;
9056;SDS011;4563;54.756;9.400;2023-03-13T10:42:20;20.33;;;2.47;;
9056;SDS011;4563;54.756;9.400;2023-03-13T10:44:55;29.73;;;3.33;;
9056;SDS011;4563;54.756;9.400;2023-03-13T10:47:23;22.53;;;2.77;;
9056;SDS011;4563;54.756;9.400;2023-03-13T10:49:51;25.50;;;3.50;;
9056;SDS011;4563;54.756;9.400;2023-03-13T10:52:33;26.20;;;2.63;;
9056;SDS011;4563;54.756;9.400;2023-03-13T10:55:09;24.50;;;3.40;;
9056;SDS011;4563;54.756;9.400;2023-03-13T10:57:38;20.23;;;2.37;;
9056;SDS011;4563;54.756;9.400;2023-03-13T11:00:27;21.80;;;2.80;;
9056;SDS011;4563;54.756;9.400;2023-03-13T11:03:12;31.77;;;3.93;;
9056;SDS011;4563;54.756;9.400;2023-03-13T11:05:42;30.40;;;3.80;;
9056;SDS011;4563;54.756;9.400;2023-03-13T11:08:17;21.23;;;2.33;;
9056;SDS011;4563;54.756;9.400;2023-03-13T11:10:50;23.83;;;3.03;;
9056;SDS011;4563;54.756;9.400;2023-03-13T11:13:27;18.90;;;2.97;;
9056;SDS011;4563;54.756;9.400;2023-03-13T11:15:56;32.20;;;3.07;;
9056;SDS011;4563;54.756;9.400;2023-03-13T11:18:27;26.73;;;3.60;;
9056;SDS011;4563;54.756;9.400;2023-03-13T11:20:59;26.43;;;2.53;;
9056;SDS011;4563;54.756;9.400;2023-03-13T11:23:31;24.27;;;2.93;;
9056;SDS011;4563;54.756;9.400;2023-03-13T11:26:05;24.37;;;3.23;;
9056;SDS011;4563;54.756;9.400;2023-03-13T11:28:43;23.63;;;2.70;;
9056;SDS011;4563;54.756;9.400;2023-03-13T11:31:18;18.00;;;2.77;;
9056;SDS011;4563;54.756;9.400;2023-03-13T11:33:52;36.87;;;4.17;;
9056;SDS011;4563;54.756;9.400;2023-03-13T11:36:25;21.40;;;2.90;;
9056;SDS011;4563;54.756;9.400;2023-03-13T11:39:01;27.73;;;3.23;;
9056;SDS011;4563;54.756;9.400;2023-03-13T11:41:42;24.47;;;3.00;;
9056;SDS011;4563;54.756;9.400;2023-03-13T11:44:27;33.70;;;2.73;;
9056;SDS011;4563;54.756;9.400;2023-03-13T11:46:58;19.00;;;2.47;;
9056;SDS011;4563;54.756;9.400;2023-03-13T11:49:38;23.80;;;2.63;;
9056;SDS011;4563;54.756;9.400;2023-03-13T11:52:34;19.23;;;2.00;;
9056;SDS011;4563;54.756;9.400;2023-03-13T11:55:21;22.27;;;2.53;;
9056;SDS011;4563;54.756;9.400;2023-03-13T11:57:57;17.90;;;2.63;;
9056;SDS011;4563;54.756;9.400;2023-03-13T12:00:35;30.13;;;3.10;;
9056;SDS011;4563;54.756;9.400;2023-03-13T12:03:08;12.63;;;1.90;;
9056;SDS011;4563;54.756;9.400;2023-03-13T12:05:40;21.67;;;2.70;;
9056;SDS011;4563;54.756;9.400;2023-03-13T12:08:11;21.77;;;2.30;;
9056;SDS011;4563;54.756;9.400;2023-03-13T12:10:45;24.80;;;3.00;;
9056;SDS011;4563;54.756;9.400;2023-03-13T12:13:18;19.57;;;2.23;;
9056;SDS011;4563;54.756;9.400;2023-03-13T12:15:48;16.73;;;2.13;;
9056;SDS011;4563;54.756;9.400;2023-03-13T12:18:18;16.33;;;2.30;;
9056;SDS011;4563;54.756;9.400;2023-03-13T12:20:50;22.63;;;2.93;;
9056;SDS011;4563;54.756;9.400;2023-03-13T12:23:23;20.07;;;2.63;;
9056;SDS011;4563;54.756;9.400;2023-03-13T12:26:02;17.97;;;2.83;;
9056;SDS011;4563;54.756;9.400;2023-03-13T12:28:34;21.73;;;3.03;;
9056;SDS011;4563;54.756;9.400;2023-03-13T12:31:08;13.10;;;2.33;;
9056;SDS011;4563;54.756;9.400;2023-03-13T12:33:43;15.93;;;2.70;;
9056;SDS011;4563;54.756;9.400;2023-03-13T12:36:17;14.97;;;2.40;;
9056;SDS011;4563;54.756;9.400;2023-03-13T12:38:52;19.67;;;2.90;;
9056;SDS011;4563;54.756;9.400;2023-03-13T12:41:24;17.17;;;2.57;;
9056;SDS011;4563;54.756;9.400;2023-03-13T12:43:55;17.07;;;2.77;;
9056;SDS011;4563;54.756;9.400;2023-03-13T12:52:33;16.00;;;2.87;;
9056;SDS011;4563;54.756;9.400;2023-03-13T12:58:29;13.17;;;3.13;;
9056;SDS011;4563;54.756;9.400;2023-03-13T13:01:04;18.70;;;3.20;;
9056;SDS011;4563;54.756;9.400;2023-03-13T13:03:33;17.47;;;2.57;;
9056;SDS011;4563;54.756;9.400;2023-03-13T13:06:06;13.77;;;2.67;;
9056;SDS011;4563;54.756;9.400;2023-03-13T13:08:36;18.97;;;3.23;;
9056;SDS011;4563;54.756;9.400;2023-03-13T13:17:19;21.73;;;3.47;;
9056;SDS011;4563;54.756;9.400;2023-03-13T13:19:51;19.60;;;3.67;;
9056;SDS011;4563;54.756;9.400;2023-03-13T13:25:27;10.13;;;2.27;;
9056;SDS011;4563;54.756;9.400;2023-03-13T13:27:56;17.10;;;3.10;;
9056;SDS011;4563;54.756;9.400;2023-03-13T13:30:37;18.00;;;3.93;;
9056;SDS011;4563;54.756;9.400;2023-03-13T13:41:59;10.23;;;2.27;;
9056;SDS011;4563;54.756;9.400;2023-03-13T13:44:27;12.00;;;2.57;;
9056;SDS011;4563;54.756;9.400;2023-03-13T13:46:55;16.03;;;3.43;;
9056;SDS011;4563;54.756;9.400;2023-03-13T13:49:35;17.37;;;3.17;;
9056;SDS011;4563;54.756;9.400;2023-03-13T13:57:58;14.87;;;3.57;;
9056;SDS011;4563;54.756;9.400;2023-03-13T14:00:28;16.33;;;2.90;;
9056;SDS011;4563;54.756;9.400;2023-03-13T14:03:10;12.87;;;2.97;;
9056;SDS011;4563;54.756;9.400;2023-03-13T14:05:46;16.60;;;3.33;;
9056;SDS011;4563;54.756;9.400;2023-03-13T14:08:16;21.43;;;3.87;;
9056;SDS011;4563;54.756;9.400;2023-03-13T14:10:49;10.33;;;2.80;;
9056;SDS011;4563;54.756;9.400;2023-03-13T14:13:21;13.00;;;3.07;;
9056;SDS011;4563;54.756;9.400;2023-03-13T14:15:49;20.07;;;3.30;;
9056;SDS011;4563;54.756;9.400;2023-03-13T14:18:21;16.00;;;3.63;;
9056;SDS011;4563;54.756;9.400;2023-03-13T14:20:57;12.73;;;3.27;;
9056;SDS011;4563;54.756;9.400;2023-03-13T14:23:32;12.90;;;3.37;;
9056;SDS011;4563;54.756;9.400;2023-03-13T14:26:11;20.23;;;3.33;;
9056;SDS011;4563;54.756;9.400;2023-03-13T14:28:42;24.40;;;3.23;;
9056;SDS011;4563;54.756;9.400;2023-03-13T14:31:09;15.40;;;3.17;;
9056;SDS011;4563;54.756;9.400;2023-03-13T14:33:47;12.27;;;3.47;;
9056;SDS011;4563;54.756;9.400;2023-03-13T14:36:14;23.02;;;4.40;;
9056;SDS011;4563;54.756;9.400;2023-03-13T14:38:49;17.53;;;3.20;;
9056;SDS011;4563;54.756;9.400;2023-03-13T14:41:26;26.83;;;3.40;;
9056;SDS011;4563;54.756;9.400;2023-03-13T14:44:00;12.93;;;3.03;;
9056;SDS011;4563;54.756;9.400;2023-03-13T14:46:29;21.50;;;3.30;;
9056;SDS011;4563;54.756;9.400;2023-03-13T14:49:04;16.93;;;3.77;;
9056;SDS011;4563;54.756;9.400;2023-03-13T14:51:35;16.33;;;3.83;;
9056;SDS011;4563;54.756;9.400;2023-03-13T14:54:03;17.53;;;3.00;;
9056;SDS011;4563;54.756;9.400;2023-03-13T14:56:32;19.70;;;3.83;;
9056;SDS011;4563;54.756;9.400;2023-03-13T14:59:07;16.47;;;3.03;;
9056;SDS011;4563;54.756;9.400;2023-03-13T15:01:39;12.83;;;2.87;;
9056;SDS011;4563;54.756;9.400;2023-03-13T15:04:06;20.43;;;3.77;;
9056;SDS011;4563;54.756;9.400;2023-03-13T15:06:33;11.27;;;2.33;;
9056;SDS011;4563;54.756;9.400;2023-03-13T15:09:13;26.80;;;4.13;;
9056;SDS011;4563;54.756;9.400;2023-03-13T15:11:53;15.27;;;3.27;;
9056;SDS011;4563;54.756;9.400;2023-03-13T15:17:12;20.07;;;3.03;;
9056;SDS011;4563;54.756;9.400;2023-03-13T15:19:41;19.30;;;3.07;;
9056;SDS011;4563;54.756;9.400;2023-03-13T15:22:12;13.90;;;3.13;;
9056;SDS011;4563;54.756;9.400;2023-03-13T15:24:40;20.87;;;3.87;;
9056;SDS011;4563;54.756;9.400;2023-03-13T15:27:15;22.13;;;3.77;;
9056;SDS011;4563;54.756;9.400;2023-03-13T15:29:43;18.17;;;4.03;;
9056;SDS011;4563;54.756;9.400;2023-03-13T15:32:21;15.33;;;2.80;;
9056;SDS011;4563;54.756;9.400;2023-03-13T15:34:51;15.10;;;3.07;;
9056;SDS011;4563;54.756;9.400;2023-03-13T15:37:22;21.63;;;3.10;;
9056;SDS011;4563;54.756;9.400;2023-03-13T15:39:49;13.60;;;2.73;;
9056;SDS011;4563;54.756;9.400;2023-03-13T15:42:18;25.50;;;4.33;;
9056;SDS011;4563;54.756;9.400;2023-03-13T15:44:44;22.30;;;3.77;;
9056;SDS011;4563;54.756;9.400;2023-03-13T15:47:12;21.00;;;3.47;;
9056;SDS011;4563;54.756;9.400;2023-03-13T15:49:41;22.40;;;3.97;;
9056;SDS011;4563;54.756;9.400;2023-03-13T15:52:11;18.80;;;3.33;;
9056;SDS011;4563;54.756;9.400;2023-03-13T15:54:41;22.03;;;3.57;;
9056;SDS011;4563;54.756;9.400;2023-03-13T15:57:08;18.73;;;3.43;;
9056;SDS011;4563;54.756;9.400;2023-03-13T15:59:39;19.97;;;3.60;;
9056;SDS011;4563;54.756;9.400;2023-03-13T16:02:08;17.17;;;3.30;;
9056;SDS011;4563;54.756;9.400;2023-03-13T16:04:40;20.33;;;4.87;;
9056;SDS011;4563;54.756;9.400;2023-03-13T16:07:08;18.73;;;4.03;;